Terminal Aerodrome Forecast
Issued by NWS Quad Cities IA IL

Home | Current Version | Previous Version | Text Only | Print | Product List | Glossary On
Versions: 1 2 3 4 5 6 7 8 9 10 11 12 13 14 15 16 17 18 19
000
FTUS43 KDVN 190103 AAA
TAFMLI
TAF AMD
KMLI 190103Z 1901/1924 27013KT 5SM RA BR VCTS BKN050CB
     FM190230 VRB05KT P6SM VCSH SCT050
      TEMPO 1909/1912 4SM BR
     FM191400 17007KT P6SM SCT050=

USA.gov is the U.S. government's official web portal to all federal, state and local government web resources and services.